createdAt,value
2023-04-11T00:02:20.295Z,72.40
2023-04-11T00:04:47.449Z,72.30
2023-04-11T00:07:14.564Z,72.30
2023-04-11T00:09:41.687Z,73.00
2023-04-11T00:12:08.869Z,72.30
2023-04-11T00:14:38.648Z,72.10
2023-04-11T00:17:06.248Z,72.00
2023-04-11T00:19:33.633Z,72.30
2023-04-11T00:22:01.630Z,72.90
2023-04-11T00:24:29.312Z,73.40
2023-04-11T00:26:57.127Z,73.50
2023-04-11T00:29:24.225Z,73.70
2023-04-11T00:31:52.917Z,73.60
2023-04-11T00:34:20.146Z,73.50
2023-04-11T00:36:47.331Z,73.50
2023-04-11T00:39:14.547Z,73.70
2023-04-11T00:41:41.990Z,73.80
2023-04-11T00:44:10.973Z,73.90
2023-04-11T00:46:38.345Z,73.70
2023-04-11T00:49:05.418Z,73.60
2023-04-11T00:51:32.534Z,73.70
2023-04-11T00:54:01.412Z,75.10
2023-04-11T00:56:31.932Z,74.80
2023-04-11T00:58:59.375Z,75.20
2023-04-11T01:01:26.600Z,75.00
2023-04-11T01:03:54.021Z,75.10
2023-04-11T01:06:23.146Z,75.00
2023-04-11T01:08:50.301Z,74.50
2023-04-11T01:11:20.306Z,73.90
2023-04-11T01:13:47.556Z,73.90
2023-04-11T01:16:21.727Z,73.80
2023-04-11T01:18:54.640Z,73.60
2023-04-11T01:21:22.444Z,73.70
2023-04-11T01:23:52.825Z,73.80
2023-04-11T01:26:20.004Z,74.00
2023-04-11T01:28:47.099Z,74.10
2023-04-11T01:31:14.316Z,74.60
2023-04-11T01:33:43.501Z,74.80
2023-04-11T01:36:10.771Z,74.50
2023-04-11T01:38:39.353Z,73.90
2023-04-11T01:41:07.150Z,74.20
2023-04-11T01:43:34.426Z,74.40
2023-04-11T01:46:01.695Z,74.40
2023-04-11T01:48:29.014Z,74.60
2023-04-11T01:50:56.553Z,74.10
2023-04-11T01:53:23.687Z,74.70
2023-04-11T01:55:50.894Z,74.80
2023-04-11T01:58:18.020Z,74.90
2023-04-11T02:00:45.166Z,74.70
2023-04-11T02:03:31.034Z,74.30
2023-04-11T02:05:58.245Z,74.00
2023-04-11T02:08:25.572Z,73.90
2023-04-11T02:10:52.691Z,74.30
2023-04-11T02:13:19.718Z,74.50
2023-04-11T02:16:31.598Z,74.50
2023-04-11T02:21:39.612Z,74.00
2023-04-11T02:24:07.831Z,74.00
2023-04-11T02:26:34.899Z,73.90
2023-04-11T02:29:02.171Z,74.20
2023-04-11T02:31:29.539Z,74.10
2023-04-11T02:33:56.683Z,74.10
2023-04-11T02:36:23.742Z,74.00
2023-04-11T02:38:51.033Z,74.00
2023-04-11T02:41:18.151Z,73.80
2023-04-11T02:43:45.548Z,73.90
2023-04-11T02:46:13.462Z,73.90
2023-04-11T02:48:41.063Z,74.10
2023-04-11T02:51:08.445Z,74.10
2023-04-11T02:53:36.447Z,74.00
2023-04-11T02:56:03.598Z,73.80
2023-04-11T02:58:30.843Z,73.90
2023-04-11T03:00:57.908Z,73.90
2023-04-11T03:03:25.146Z,73.90
2023-04-11T03:05:52.392Z,74.10
2023-04-11T03:08:19.467Z,73.90
2023-04-11T03:10:46.526Z,73.70
2023-04-11T03:13:13.737Z,73.70
2023-04-11T03:15:41.933Z,73.80
2023-04-11T03:18:09.092Z,73.80
2023-04-11T03:20:36.142Z,74.10
2023-04-11T03:23:03.259Z,74.30
2023-04-11T03:25:30.365Z,74.20
2023-04-11T03:27:57.652Z,73.90
2023-04-11T03:30:24.970Z,73.80
2023-04-11T03:32:53.218Z,73.90
2023-04-11T03:35:21.013Z,73.80
2023-04-11T03:37:49.514Z,73.90
2023-04-11T03:40:18.870Z,73.90
2023-04-11T03:42:49.587Z,73.80
2023-04-11T03:45:17.252Z,73.80
2023-04-11T03:47:44.577Z,73.90
2023-04-11T03:50:11.802Z,73.90
2023-04-11T03:52:38.840Z,74.00
2023-04-11T03:55:06.356Z,74.10
2023-04-11T03:57:33.413Z,74.00
2023-04-11T04:00:01.242Z,74.10
2023-04-11T04:02:28.483Z,74.00
2023-04-11T04:04:56.016Z,73.90
2023-04-11T04:07:26.757Z,73.90
2023-04-11T04:09:54.077Z,74.30
2023-04-11T04:12:21.569Z,74.40
2023-04-11T04:14:48.746Z,74.20
2023-04-11T04:17:17.685Z,74.30
2023-04-11T04:19:44.905Z,74.10
2023-04-11T04:22:12.454Z,74.40
2023-04-11T04:24:42.284Z,74.90
2023-04-11T04:27:09.468Z,75.00
2023-04-11T04:29:46.480Z,75.00
2023-04-11T04:32:21.044Z,74.70
2023-04-11T04:34:55.268Z,74.40
2023-04-11T04:37:24.361Z,74.70
2023-04-11T04:39:54.328Z,74.90
2023-04-11T04:42:22.612Z,75.30
2023-04-11T04:44:50.541Z,75.20
2023-04-11T04:47:17.855Z,75.00
2023-04-11T04:49:45.146Z,75.00
2023-04-11T04:52:15.750Z,74.90
2023-04-11T04:54:43.159Z,75.10
2023-04-11T04:57:10.311Z,75.30
2023-04-11T04:59:37.407Z,75.20
2023-04-11T05:02:04.587Z,75.00
2023-04-11T05:04:34.478Z,74.80
2023-04-11T05:07:01.834Z,74.50
2023-04-11T05:09:29.310Z,74.10
2023-04-11T05:11:56.930Z,74.00
2023-04-11T05:14:24.036Z,74.10
2023-04-11T05:16:51.496Z,74.20
2023-04-11T05:19:18.553Z,74.20
2023-04-11T05:21:45.584Z,74.00
2023-04-11T05:24:12.699Z,73.80
2023-04-11T05:26:39.851Z,73.40
2023-04-11T05:29:06.917Z,73.30
2023-04-11T05:31:34.026Z,73.80
2023-04-11T05:34:01.346Z,73.50
2023-04-11T05:36:28.727Z,73.90
2023-04-11T05:38:56.124Z,73.40
2023-04-11T05:41:23.587Z,73.10
2023-04-11T05:43:51.110Z,72.70
2023-04-11T05:46:25.982Z,72.00
2023-04-11T05:48:53.103Z,71.40
2023-04-11T05:51:23.005Z,71.20
2023-04-11T05:53:50.106Z,71.20
2023-04-11T05:56:20.018Z,70.00
2023-04-11T05:58:59.047Z,69.10
2023-04-11T06:01:26.358Z,69.00
2023-04-11T06:03:53.627Z,68.60
2023-04-11T06:06:21.005Z,68.30
2023-04-11T06:08:48.394Z,68.70
2023-04-11T06:11:16.938Z,67.80
2023-04-11T06:13:44.018Z,67.40
2023-04-11T06:16:11.372Z,67.20
2023-04-11T06:18:38.498Z,67.40
2023-04-11T06:21:05.929Z,67.00
2023-04-11T06:23:33.064Z,67.00
2023-04-11T06:26:00.219Z,67.00
2023-04-11T06:28:27.631Z,67.00
2023-04-11T06:30:55.119Z,66.80
2023-04-11T06:33:23.792Z,66.20
2023-04-11T06:35:51.186Z,65.70
2023-04-11T06:38:18.618Z,65.90
2023-04-11T06:40:46.307Z,65.90
2023-04-11T06:43:13.583Z,65.90
2023-04-11T06:45:40.888Z,65.90
2023-04-11T06:48:09.130Z,65.10
2023-04-11T06:50:42.227Z,64.50
2023-04-11T06:53:09.985Z,63.90
2023-04-11T06:55:40.396Z,63.40
2023-04-11T06:58:10.382Z,63.30
2023-04-11T07:00:39.104Z,62.70
2023-04-11T07:03:09.728Z,61.80
2023-04-11T07:05:39.854Z,61.20
2023-04-11T07:08:13.707Z,60.80
2023-04-11T07:10:42.594Z,59.10
2023-04-11T07:13:12.665Z,57.60
2023-04-11T07:15:40.594Z,56.00
2023-04-11T07:18:08.224Z,55.30
2023-04-11T07:20:40.006Z,55.00
2023-04-11T07:23:08.935Z,54.50
2023-04-11T07:25:40.145Z,53.50
2023-04-11T07:28:13.951Z,53.40
2023-04-11T07:30:43.432Z,52.30
2023-04-11T07:33:11.510Z,51.80
2023-04-11T07:35:43.423Z,50.90
2023-04-11T07:38:12.398Z,50.40
2023-04-11T07:40:40.377Z,48.10
2023-04-11T07:43:09.317Z,47.00
2023-04-11T07:45:37.308Z,46.90
2023-04-11T07:48:04.805Z,46.20
2023-04-11T07:50:32.009Z,47.10
2023-04-11T07:53:01.701Z,46.20
2023-04-11T07:55:29.184Z,44.70
2023-04-11T07:57:56.385Z,44.20
2023-04-11T08:03:08.402Z,42.20
2023-04-11T08:05:36.469Z,41.60
2023-04-11T08:08:04.918Z,42.10
2023-04-11T08:10:32.319Z,41.70
2023-04-11T08:12:59.983Z,41.80
2023-04-11T08:15:27.538Z,42.00
2023-04-11T08:17:58.605Z,41.10
2023-04-11T08:20:26.791Z,41.30
2023-04-11T08:22:54.755Z,41.50
2023-04-11T08:25:23.955Z,41.40
2023-04-11T08:27:51.360Z,40.90
2023-04-11T08:30:18.574Z,39.70
2023-04-11T08:32:46.043Z,39.40
2023-04-11T08:35:13.198Z,39.00
2023-04-11T08:37:40.554Z,38.20
2023-04-11T08:40:41.630Z,38.10
2023-04-11T08:43:12.381Z,38.60
2023-04-11T08:45:40.539Z,39.20
2023-04-11T08:48:08.299Z,37.80
2023-04-11T08:50:42.510Z,38.00
2023-04-11T08:53:14.090Z,36.60
2023-04-11T08:55:47.973Z,36.70
2023-04-11T08:58:15.874Z,37.10
2023-04-11T09:00:43.390Z,36.90
2023-04-11T09:03:12.267Z,37.10
2023-04-11T09:05:41.102Z,35.70
2023-04-11T09:08:09.803Z,35.80
2023-04-11T09:10:38.154Z,35.60
2023-04-11T09:13:24.433Z,35.00
2023-04-11T09:16:09.718Z,34.70
2023-04-11T09:18:41.529Z,35.50
2023-04-11T09:21:12.947Z,35.80
2023-04-11T09:23:41.246Z,35.80
2023-04-11T09:26:09.480Z,34.10
2023-04-11T09:28:52.657Z,34.10
2023-04-11T09:31:25.783Z,34.60
2023-04-11T09:33:55.107Z,35.00
2023-04-11T09:36:27.413Z,33.50
2023-04-11T09:39:17.340Z,33.10
2023-04-11T09:41:46.003Z,33.80
2023-04-11T09:44:13.760Z,31.80
2023-04-11T09:46:57.766Z,31.90
2023-04-11T09:49:30.251Z,31.00
2023-04-11T09:51:58.785Z,31.70
2023-04-11T09:54:28.532Z,31.40
2023-04-11T09:56:58.554Z,31.50
2023-04-11T09:59:28.944Z,29.90
2023-04-11T10:01:57.511Z,30.40
2023-04-11T10:04:29.003Z,30.10
2023-04-11T10:07:17.271Z,29.90
2023-04-11T10:09:44.683Z,29.00
2023-04-11T10:12:13.695Z,29.10
2023-04-11T10:14:53.504Z,29.70
2023-04-11T10:17:24.279Z,29.60
2023-04-11T10:34:13.709Z,30.00
2023-04-11T10:37:07.948Z,29.50
2023-04-11T10:45:32.225Z,28.60
2023-04-11T10:48:25.801Z,29.20
2023-04-11T10:50:53.170Z,29.60
2023-04-11T10:53:37.472Z,28.30
2023-04-11T10:56:05.100Z,27.10
2023-04-11T10:58:59.183Z,27.10
2023-04-11T11:01:31.979Z,26.70
2023-04-11T11:04:06.373Z,27.00
2023-04-11T11:06:50.990Z,27.20
2023-04-11T11:09:26.835Z,26.70
2023-04-11T11:12:10.377Z,26.60
2023-04-11T11:14:38.318Z,26.80
2023-04-11T11:17:06.864Z,26.50
2023-04-11T11:19:34.854Z,26.90
2023-04-11T11:22:06.659Z,26.00
2023-04-11T11:24:33.905Z,26.10
2023-04-11T11:27:01.090Z,26.50
2023-04-11T11:29:35.405Z,26.20
2023-04-11T11:32:04.624Z,26.40
2023-04-11T11:34:33.035Z,26.50
2023-04-11T11:37:09.167Z,26.60
2023-04-11T11:39:36.555Z,26.80
2023-04-11T11:42:12.202Z,26.90
2023-04-11T11:45:18.432Z,27.10
2023-04-11T11:52:04.342Z,27.30
2023-04-11T11:54:33.940Z,26.40
2023-04-11T11:57:05.195Z,26.40
2023-04-11T11:59:34.421Z,26.10
2023-04-11T12:21:58.496Z,27.30
2023-04-11T12:24:28.920Z,26.00
2023-04-11T12:27:06.263Z,26.10
2023-04-11T13:02:27.147Z,26.70
2023-04-11T13:04:55.687Z,27.00
2023-04-11T13:07:25.058Z,27.20
2023-04-11T13:09:53.646Z,26.20
2023-04-11T13:12:21.188Z,26.50
2023-04-11T13:14:54.020Z,26.20
2023-04-11T13:17:21.645Z,26.50
2023-04-11T13:19:49.157Z,26.00
2023-04-11T13:22:16.542Z,26.10
2023-04-11T13:24:43.824Z,25.90
2023-04-11T13:27:11.219Z,26.00
2023-04-11T13:29:40.172Z,26.10
2023-04-11T13:32:07.705Z,26.50
2023-04-11T13:34:36.421Z,26.00
2023-04-11T13:37:08.616Z,26.20
2023-04-11T13:39:48.954Z,26.70
2023-04-11T13:42:16.768Z,26.90
2023-04-11T13:44:45.605Z,26.60
2023-04-11T13:47:13.713Z,26.80
2023-04-11T13:53:23.047Z,26.70
2023-04-11T13:55:52.487Z,27.30
2023-04-11T13:58:20.107Z,27.00
2023-04-11T14:00:53.582Z,26.70
2023-04-11T14:03:21.398Z,26.90
2023-04-11T14:09:16.548Z,26.90
2023-04-11T14:11:50.505Z,27.00
2023-04-11T14:14:17.863Z,26.70
2023-04-11T14:16:57.056Z,26.40
2023-04-11T14:19:26.155Z,25.80
2023-04-11T14:21:55.844Z,26.00
2023-04-11T14:24:26.625Z,26.10
2023-04-11T14:26:53.999Z,26.10
2023-04-11T14:29:27.476Z,26.10
2023-04-11T14:31:58.255Z,26.20
2023-04-11T14:34:29.226Z,26.40
2023-04-11T14:39:45.599Z,27.00
2023-04-11T14:42:13.605Z,26.00
2023-04-11T14:44:53.523Z,26.20
2023-04-11T14:47:25.173Z,26.10
2023-04-11T14:49:56.105Z,26.60
2023-04-11T14:52:55.001Z,26.40
2023-04-11T14:55:56.299Z,26.80
2023-04-11T14:58:28.607Z,27.60
2023-04-11T15:00:58.600Z,27.30
2023-04-11T15:03:34.026Z,27.00
2023-04-11T15:06:21.551Z,26.50
2023-04-11T15:09:21.495Z,25.70
2023-04-11T15:11:53.869Z,26.40
2023-04-11T15:14:39.920Z,26.50
2023-04-11T15:17:07.779Z,27.10
2023-04-11T15:19:35.189Z,27.00
2023-04-11T15:22:03.669Z,26.90
2023-04-11T15:24:31.179Z,27.00
2023-04-11T15:27:01.619Z,27.40
2023-04-11T15:29:29.426Z,27.10
2023-04-11T15:31:59.784Z,27.50
2023-04-11T15:34:28.343Z,27.20
2023-04-11T15:36:57.052Z,27.60
2023-04-11T15:39:24.296Z,27.60
2023-04-11T15:41:52.626Z,27.40
2023-04-11T15:44:20.114Z,27.70
2023-04-11T15:46:49.331Z,27.90
2023-04-11T15:49:17.663Z,28.20
2023-04-11T15:51:46.618Z,28.20
2023-04-11T15:54:14.022Z,28.40
2023-04-11T15:56:41.210Z,28.40
2023-04-11T15:59:11.694Z,28.60
2023-04-11T16:01:40.571Z,28.50
2023-04-11T16:04:09.238Z,28.30
2023-04-11T16:06:38.221Z,28.50
2023-04-11T16:09:05.561Z,28.70
2023-04-11T16:11:33.870Z,28.70
2023-04-11T16:14:01.274Z,28.60
2023-04-11T16:16:32.033Z,28.70
2023-04-11T16:19:00.150Z,28.70
2023-04-11T16:21:27.628Z,28.80
2023-04-11T16:24:23.247Z,29.30
2023-04-11T16:26:48.474Z,29.20
2023-04-11T16:29:42.662Z,28.80
2023-04-11T16:32:32.119Z,29.00
2023-04-11T16:35:00.355Z,29.20
2023-04-11T16:37:36.729Z,29.40
2023-04-11T16:40:15.478Z,29.60
2023-04-11T16:45:46.958Z,30.30
2023-04-11T16:48:18.181Z,30.70
2023-04-11T16:50:45.325Z,30.70
2023-04-11T16:53:12.657Z,31.40
2023-04-11T16:55:40.318Z,32.10
2023-04-11T16:58:08.903Z,32.50
2023-04-11T17:00:36.971Z,33.00
2023-04-11T17:03:04.628Z,33.90
2023-04-11T17:05:35.043Z,34.50
2023-04-11T17:08:02.373Z,35.00
2023-04-11T17:10:29.910Z,35.20
2023-04-11T17:12:58.724Z,35.70
2023-04-11T17:15:26.677Z,35.60
2023-04-11T17:17:54.737Z,36.40
2023-04-11T17:20:22.669Z,35.80
2023-04-11T17:22:50.213Z,36.50
2023-04-11T17:25:17.689Z,36.20
2023-04-11T17:27:44.960Z,36.10
2023-04-11T17:30:12.581Z,36.50
2023-04-11T17:32:45.875Z,36.80
2023-04-11T17:35:13.316Z,36.90
2023-04-11T17:37:40.492Z,36.90
2023-04-11T17:40:13.513Z,37.00
2023-04-11T17:42:41.359Z,37.70
2023-04-11T17:47:43.552Z,36.50
2023-04-11T17:50:11.898Z,36.60
2023-04-11T17:52:44.018Z,36.00
2023-04-11T17:55:13.146Z,35.80
2023-04-11T17:57:40.832Z,36.40
2023-04-11T18:00:18.018Z,36.90
2023-04-11T18:02:46.977Z,37.20
2023-04-11T18:05:23.154Z,37.20
2023-04-11T18:07:54.385Z,37.60
2023-04-11T18:10:22.237Z,38.20
2023-04-11T18:12:51.362Z,37.50
2023-04-11T18:15:24.826Z,37.10
2023-04-11T18:17:54.388Z,38.10
2023-04-11T18:20:25.409Z,38.50
2023-04-11T18:22:59.588Z,38.70
2023-04-11T18:25:27.174Z,38.40
2023-04-11T18:27:54.445Z,38.20
2023-04-11T18:30:21.589Z,38.10
2023-04-11T18:32:50.984Z,38.00
2023-04-11T18:35:18.768Z,38.10
2023-04-11T18:37:46.095Z,38.60
2023-04-11T18:40:14.407Z,38.70
2023-04-11T18:42:43.030Z,38.70
2023-04-11T18:45:12.112Z,38.90
2023-04-11T18:47:59.343Z,38.80
2023-04-11T18:50:27.798Z,38.60
2023-04-11T18:52:56.638Z,38.90
2023-04-11T18:55:25.421Z,39.00
2023-04-11T18:57:57.950Z,39.30
2023-04-11T19:00:29.831Z,39.50
2023-04-11T19:02:57.942Z,39.50
2023-04-11T19:05:25.911Z,39.70
2023-04-11T19:07:54.901Z,39.70
2023-04-11T19:10:22.602Z,39.70
2023-04-11T19:12:50.207Z,39.10
2023-04-11T19:15:17.476Z,39.10
2023-04-11T19:17:44.789Z,38.80
2023-04-11T19:20:17.203Z,38.70
2023-04-11T19:22:46.494Z,39.80
2023-04-11T19:25:14.698Z,40.40
2023-04-11T19:27:42.722Z,40.60
2023-04-11T19:30:14.327Z,40.90
2023-04-11T19:32:43.909Z,41.30
2023-04-11T19:35:11.724Z,40.60
2023-04-11T19:37:39.787Z,41.10
2023-04-11T19:40:07.913Z,41.60
2023-04-11T19:42:37.413Z,42.00
2023-04-11T19:45:05.274Z,42.00
2023-04-11T19:47:33.164Z,41.70
2023-04-11T19:50:01.242Z,41.80
2023-04-11T19:52:28.922Z,41.90
2023-04-11T19:54:56.649Z,42.00
2023-04-11T19:57:25.956Z,41.80
2023-04-11T19:59:53.169Z,42.10
2023-04-11T20:02:21.771Z,42.30
2023-04-11T20:04:49.799Z,42.70
2023-04-11T20:07:18.012Z,43.10
2023-04-11T20:09:45.715Z,43.30
2023-04-11T20:12:13.375Z,43.50
2023-04-11T20:14:44.153Z,43.50
2023-04-11T20:17:11.613Z,43.60
2023-04-11T20:19:42.051Z,43.40
2023-04-11T20:22:13.661Z,43.80
2023-04-11T20:24:41.636Z,44.30
2023-04-11T20:27:19.338Z,43.80
2023-04-11T20:29:46.872Z,43.20
2023-04-11T20:32:14.310Z,43.20
2023-04-11T20:34:41.534Z,43.20
2023-04-11T20:37:09.552Z,43.30
2023-04-11T20:39:37.671Z,43.40
2023-04-11T20:42:08.611Z,43.40
2023-04-11T20:44:38.602Z,43.20
2023-04-11T20:47:07.730Z,43.00
2023-04-11T20:49:37.882Z,42.90
2023-04-11T20:52:07.728Z,43.80
2023-04-11T20:54:47.254Z,44.50
2023-04-11T20:57:15.112Z,44.60
2023-04-11T21:00:07.436Z,44.60
2023-04-11T21:02:37.911Z,44.30
2023-04-11T21:05:06.491Z,44.30
2023-04-11T21:07:33.815Z,44.70
2023-04-11T21:10:02.038Z,44.70
2023-04-11T21:12:29.645Z,45.40
2023-04-11T21:14:59.157Z,45.70
2023-04-11T21:17:26.588Z,45.80
2023-04-11T21:19:54.270Z,45.70
2023-04-11T21:22:21.859Z,45.60
2023-04-11T21:24:49.329Z,45.50
2023-04-11T21:27:16.924Z,45.50
2023-04-11T21:29:44.263Z,45.90
2023-04-11T21:32:11.932Z,45.40
2023-04-11T21:34:39.270Z,45.20
2023-04-11T21:37:06.680Z,45.20
2023-04-11T21:39:34.105Z,45.60
2023-04-11T21:42:01.664Z,45.20
2023-04-11T21:44:31.383Z,45.40
2023-04-11T21:46:59.931Z,45.70
2023-04-11T21:49:27.400Z,46.20
2023-04-11T21:51:55.153Z,46.40
2023-04-11T21:54:22.445Z,46.70
2023-04-11T21:56:50.047Z,46.50
2023-04-11T21:59:19.710Z,46.60
2023-04-11T22:01:48.495Z,46.70
2023-04-11T22:04:18.286Z,46.70
2023-04-11T22:06:48.777Z,46.90
2023-04-11T22:09:16.326Z,47.00
2023-04-11T22:11:43.628Z,47.10
2023-04-11T22:14:16.459Z,47.20
2023-04-11T22:16:49.604Z,46.90
2023-04-11T22:19:18.310Z,46.60
2023-04-11T22:21:49.058Z,46.90
2023-04-11T22:24:16.133Z,47.20
2023-04-11T22:26:50.876Z,46.90
2023-04-11T22:29:18.677Z,46.80
2023-04-11T22:31:47.853Z,46.70
2023-04-11T22:34:15.057Z,47.20
2023-04-11T22:36:43.348Z,47.30
2023-04-11T22:39:10.822Z,47.60
2023-04-11T22:41:39.166Z,47.50
2023-04-11T22:44:06.863Z,47.80
2023-04-11T22:46:39.099Z,47.70
2023-04-11T22:49:07.076Z,47.40
2023-04-11T22:51:34.676Z,47.20
2023-04-11T22:54:02.677Z,46.90
2023-04-11T22:56:29.811Z,46.70
2023-04-11T22:59:06.676Z,46.40
2023-04-11T23:01:46.397Z,46.70
2023-04-11T23:07:40.939Z,47.40
2023-04-11T23:19:45.413Z,47.90
2023-04-11T23:22:58.137Z,48.20
2023-04-11T23:25:27.213Z,48.40
2023-04-11T23:27:59.911Z,48.60
2023-04-11T23:30:40.440Z,48.70
2023-04-11T23:33:09.317Z,48.90
2023-04-11T23:35:41.174Z,49.30
2023-04-11T23:38:20.710Z,49.00
2023-04-11T23:40:48.030Z,49.20
2023-04-11T23:43:15.352Z,49.10
2023-04-11T23:45:46.002Z,49.40
2023-04-11T23:48:17.049Z,49.30
2023-04-11T23:50:47.428Z,49.10
2023-04-11T23:56:21.495Z,49.00
2023-04-11T23:59:05.057Z,48.70
